Time;durP1;ratioP1;P1;durP2;ratioP2;P2;SDS_P1;SDS_P2;PMS_P1;PMS_P2;Temp;Humidity;BMP_temperature;BMP_pressure;BME280_temperature;BME280_humidity;BME280_pressure;Samples;Min_cycle;Max_cycle;Signal;HPM_P1;HPM_P2
2022/01/21 00:00:57;;;;;;;9.55;2.60;;;;;;;10.17;38.05;103056.78;4431882;32;20029;-69
2022/01/21 00:03:22;;;;;;;9.93;1.98;;;;;;;10.07;38.60;103044.22;4430937;32;20478;-69
2022/01/21 00:05:49;;;;;;;9.40;2.85;;;;;;;9.90;38.67;103044.72;4433576;32;20105;-69
2022/01/21 00:08:15;;;;;;;11.45;2.92;;;;;;;9.81;38.85;103041.34;4427230;32;20398;-69
2022/01/21 00:10:41;;;;;;;9.73;2.20;;;;;;;9.81;38.93;103039.34;4427858;32;20775;-69
2022/01/21 00:13:16;;;;;;;9.00;2.67;;;;;;;9.68;39.09;103039.94;4433218;32;20090;-69
2022/01/21 00:15:42;;;;;;;11.75;2.20;;;;;;;9.62;39.34;103033.84;4432672;32;20033;-69
2022/01/21 00:18:10;;;;;;;10.45;2.42;;;;;;;9.56;39.68;103035.34;4432822;32;20068;-69
2022/01/21 00:31:37;;;;;;;;;;;;;;;9.22;40.44;103035.53;4427570;32;20022;-69
2022/01/21 00:34:03;;;;;;;10.00;3.10;;;;;;;9.40;40.29;103031.03;4420554;32;19979;-69
2022/01/21 00:36:29;;;;;;;13.70;3.50;;;;;;;9.14;40.81;103028.97;4423069;32;20095;-69
2022/01/21 00:38:56;;;;;;;11.32;3.95;;;;;;;9.11;40.78;103038.12;4422705;32;20022;-69
2022/01/21 00:41:26;;;;;;;10.68;3.15;;;;;;;9.06;40.81;103032.03;4423270;32;20100;-69
2022/01/21 00:43:52;;;;;;;14.55;3.22;;;;;;;9.01;40.98;103035.12;4418880;32;20049;-70
2022/01/21 00:46:19;;;;;;;10.43;2.87;;;;;;;9.00;41.17;103039.94;4422155;32;20057;-69
2022/01/21 00:48:45;;;;;;;15.77;3.75;;;;;;;8.84;41.41;103036.41;4420097;32;20068;-69
2022/01/21 00:51:11;;;;;;;11.82;4.00;;;;;;;8.94;41.16;103038.62;4422268;32;20029;-69
2022/01/21 00:53:37;;;;;;;10.38;2.65;;;;;;;8.82;41.27;103052.00;4422646;32;20112;-69
2022/01/21 00:56:03;;;;;;;11.12;3.47;;;;;;;8.81;41.47;103050.41;4422860;32;20080;-69
2022/01/21 00:58:29;;;;;;;7.60;2.87;;;;;;;8.73;41.64;103051.41;4418672;32;20046;-69
2022/01/21 01:00:54;;;;;;;12.57;3.28;;;;;;;8.76;41.55;103042.25;4424390;32;20434;-69
2022/01/21 01:03:20;;;;;;;8.93;3.12;;;;;;;8.74;41.62;103053.84;4420921;32;20476;-69
2022/01/21 01:05:51;;;;;;;13.62;3.40;;;;;;;8.75;41.58;103049.06;4420192;32;20045;-69
2022/01/21 01:08:21;;;;;;;14.00;3.50;;;;;;;8.79;41.72;103050.75;4423187;32;20046;-69
2022/01/21 01:21:45;;;;;;;;;;;;;;;8.55;42.13;103050.25;4426571;32;20077;-69
2022/01/21 01:29:33;;;;;;;9.07;3.00;;;;;;;8.91;41.98;103061.84;4434997;32;20427;-69
2022/01/21 01:31:59;;;;;;;13.52;3.08;;;;;;;8.40;42.60;103053.94;4436306;32;20520;-69
2022/01/21 01:34:25;;;;;;;8.55;2.67;;;;;;;8.37;42.57;103058.28;4433308;32;20701;-69
2022/01/21 01:36:50;;;;;;;12.30;2.78;;;;;;;8.43;42.49;103053.22;4434888;32;20568;-69
2022/01/21 01:42:26;;;;;;;8.13;3.37;;;;;;;8.76;42.46;103057.13;3953302;32;15724357;-68
2022/01/21 01:50:27;;;;;;;8.70;2.22;;;;;;;8.26;43.10;103046.03;4430661;32;20107;-70
2022/01/21 01:52:53;;;;;;;14.30;2.90;;;;;;;8.21;43.46;103051.88;4432638;32;20405;-69
2022/01/21 01:55:18;;;;;;;9.25;2.62;;;;;;;8.19;43.32;103043.84;4429483;32;20501;-69
2022/01/21 01:57:45;;;;;;;11.40;4.62;;;;;;;8.19;43.29;103048.62;4428313;32;20472;-69
2022/01/21 02:00:11;;;;;;;21.65;8.63;;;;;;;8.32;43.14;103038.94;4432093;32;20063;-69
2022/01/21 02:02:37;;;;;;;22.20;7.05;;;;;;;8.35;42.99;103034.59;4427238;32;20426;-69
2022/01/21 02:05:03;;;;;;;14.55;4.32;;;;;;;8.36;43.16;103031.41;4428607;32;20098;-69
2022/01/21 02:07:28;;;;;;;20.37;6.45;;;;;;;8.37;43.15;103027.41;4429845;32;20081;-69
2022/01/21 02:09:54;;;;;;;17.65;6.20;;;;;;;8.30;43.42;103040.47;4429638;32;20071;-70
2022/01/21 02:12:20;;;;;;;18.77;4.78;;;;;;;8.32;43.40;103036.16;4427828;32;20149;-69
2022/01/21 02:14:50;;;;;;;10.15;3.12;;;;;;;8.28;43.71;103035.22;4431479;32;20110;-69
2022/01/21 02:22:55;;;;;;;10.80;3.10;;;;;;;8.76;43.69;103029.03;4422167;32;20116;-69
2022/01/21 02:25:20;;;;;;;11.02;3.78;;;;;;;8.46;43.71;103024.38;4422405;32;20034;-69
2022/01/21 02:27:49;;;;;;;14.32;3.70;;;;;;;8.38;43.91;103023.44;4420587;32;20030;-69
2022/01/21 02:30:18;;;;;;;10.30;3.15;;;;;;;8.57;43.74;103017.00;4421867;32;20472;-69
2022/01/21 02:32:47;;;;;;;11.98;3.12;;;;;;;8.65;43.25;103024.41;4423544;32;20179;-69
2022/01/21 02:35:13;;;;;;;14.27;2.90;;;;;;;8.63;43.54;103024.78;4423565;32;20046;-69
2022/01/21 02:37:39;;;;;;;9.30;2.92;;;;;;;8.43;43.75;103019.53;4421802;32;20475;-69
2022/01/21 02:40:07;;;;;;;6.85;2.42;;;;;;;8.73;43.26;103010.13;4421749;32;20069;-69
2022/01/21 02:42:33;;;;;;;14.43;2.90;;;;;;;8.89;43.23;103016.47;4420826;32;20120;-69
2022/01/21 02:44:59;;;;;;;7.82;2.95;;;;;;;8.75;43.29;103009.75;4420654;32;20061;-69
2022/01/21 02:47:25;;;;;;;7.55;2.40;;;;;;;8.90;43.18;103020.88;4421981;32;20369;-69
2022/01/21 02:49:51;;;;;;;6.47;2.40;;;;;;;8.84;43.11;103022.38;4421306;32;20049;-69
2022/01/21 02:52:19;;;;;;;13.38;3.03;;;;;;;8.83;42.91;103015.12;4422155;32;20501;-69
2022/01/21 02:54:44;;;;;;;8.63;2.60;;;;;;;8.85;42.80;103015.59;4422295;32;20030;-69
2022/01/21 02:57:10;;;;;;;18.12;3.50;;;;;;;9.03;42.39;103013.94;4422466;32;20034;-69
2022/01/21 02:59:36;;;;;;;11.60;2.62;;;;;;;9.13;42.51;103009.66;4421149;32;20038;-69
2022/01/21 03:02:03;;;;;;;11.93;2.62;;;;;;;9.23;42.68;103007.06;4421080;32;20076;-69
2022/01/21 03:07:06;;;;;;;11.00;2.75;;;;;;;9.90;41.71;103019.37;3977309;32;15025473;-69
2022/01/21 03:09:32;;;;;;;8.93;2.37;;;;;;;9.90;41.71;103019.37;4433897;32;20068;-68
2022/01/21 03:11:57;;;;;;;9.10;2.47;;;;;;;9.56;42.22;103007.22;4434363;32;20507;-70
2022/01/21 03:14:23;;;;;;;13.20;2.70;;;;;;;9.48;42.44;103002.66;4430721;32;20061;-69
2022/01/21 03:16:50;;;;;;;12.65;2.97;;;;;;;9.60;42.13;103004.44;4431759;32;20089;-69
2022/01/21 03:19:15;;;;;;;14.50;3.20;;;;;;;9.69;42.35;102991.75;4432831;32;20468;-69
2022/01/21 03:21:41;;;;;;;12.43;2.95;;;;;;;9.68;41.57;102997.75;4433365;32;20064;-69
2022/01/21 03:24:08;;;;;;;8.90;2.70;;;;;;;9.98;41.74;102996.59;4430649;32;20056;-69
2022/01/21 03:26:34;;;;;;;8.90;2.28;;;;;;;10.10;41.45;102998.44;4430955;32;20154;-69
2022/01/21 03:29:02;;;;;;;7.93;2.60;;;;;;;10.00;41.29;102996.22;4429141;32;20080;-69
2022/01/21 03:31:30;;;;;;;10.98;2.55;;;;;;;10.28;41.39;102998.66;4433981;32;20443;-69
2022/01/21 03:33:59;;;;;;;9.20;2.37;;;;;;;10.21;41.46;102995.75;4432310;32;21447;-69
2022/01/21 03:36:26;;;;;;;7.80;2.75;;;;;;;10.27;41.25;102989.41;4431382;32;20030;-69
2022/01/21 03:38:52;;;;;;;7.78;2.42;;;;;;;10.53;41.31;102994.16;4424339;32;20353;-69
2022/01/21 03:41:18;;;;;;;13.35;2.80;;;;;;;10.64;41.13;102995.06;4431097;32;20390;-69
2022/01/21 03:43:43;;;;;;;11.23;2.90;;;;;;;10.60;40.92;102994.22;4435564;32;20033;-69
2022/01/21 03:46:09;;;;;;;9.13;2.20;;;;;;;10.63;41.02;102985.84;4432308;32;20085;-69
2022/01/21 03:48:35;;;;;;;13.52;3.25;;;;;;;10.57;40.88;102987.38;4431530;32;20061;-69
2022/01/21 03:51:01;;;;;;;10.20;2.95;;;;;;;10.91;40.83;102988.12;4428274;32;20145;-69
2022/01/21 03:53:27;;;;;;;15.32;2.72;;;;;;;10.91;40.52;102994.59;4432926;32;20081;-69
2022/01/21 03:55:53;;;;;;;7.75;2.80;;;;;;;10.99;40.71;102990.66;4431196;32;20072;-69
2022/01/21 03:58:20;;;;;;;8.27;2.55;;;;;;;10.93;40.88;102983.75;4427967;32;20055;-69
2022/01/21 04:00:51;;;;;;;7.93;2.42;;;;;;;11.03;40.76;102979.41;4432048;32;20045;-69
2022/01/21 04:03:18;;;;;;;10.00;2.28;;;;;;;11.02;40.86;102980.62;4428155;32;20084;-69
2022/01/21 04:05:44;;;;;;;8.80;2.50;;;;;;;10.90;41.16;102969.63;4429716;32;20134;-69
2022/01/21 04:08:11;;;;;;;11.48;2.75;;;;;;;10.70;41.71;102974.63;4430069;32;20482;-69
2022/01/21 04:10:41;;;;;;;12.65;2.70;;;;;;;10.78;41.99;102969.91;4433562;32;20041;-69
2022/01/21 04:13:18;;;;;;;11.98;2.35;;;;;;;10.60;42.62;102963.25;4431992;32;21085;-69
2022/01/21 04:15:47;;;;;;;12.00;2.50;;;;;;;10.65;42.94;102962.91;4434427;32;20108;-69
2022/01/21 04:18:13;;;;;;;13.48;2.75;;;;;;;10.73;42.89;102961.78;4420325;32;20506;-69
2022/01/21 04:20:41;;;;;;;20.20;4.18;;;;;;;10.53;43.06;102958.37;4422440;32;20439;-69
2022/01/21 04:23:09;;;;;;;12.05;3.45;;;;;;;10.48;43.48;102955.06;4418127;32;20034;-69
2022/01/21 04:25:35;;;;;;;10.75;2.35;;;;;;;10.51;43.27;102955.13;4419232;32;20077;-69
2022/01/21 04:28:00;;;;;;;9.35;2.65;;;;;;;10.44;43.32;102940.97;4411107;32;20092;-69
2022/01/21 04:30:26;;;;;;;8.82;2.70;;;;;;;10.45;43.27;102942.56;4418076;32;20540;-69
2022/01/21 04:32:52;;;;;;;10.23;2.62;;;;;;;10.48;43.27;102943.81;4424212;32;20075;-69
2022/01/21 04:35:18;;;;;;;6.25;2.53;;;;;;;10.47;43.36;102943.03;4421360;32;20073;-69
2022/01/21 04:37:52;;;;;;;14.35;2.67;;;;;;;10.49;43.51;102934.97;4421404;32;20042;-69
2022/01/21 04:40:20;;;;;;;7.17;2.27;;;;;;;10.39;43.82;102932.84;4421870;32;20061;-69
2022/01/21 04:48:17;;;;;;;;;;;;;;;10.50;43.27;102941.44;4421333;32;20223;-69
2022/01/21 04:51:25;;;;;;;11.63;2.45;;;;;;;11.15;42.42;102942.47;4422074;32;20368;-69
2022/01/21 04:53:30;;;;;;;;;;;;;;;10.93;43.00;102937.84;4418740;32;20061;-69
2022/01/21 04:55:55;;;;;;;7.60;2.33;;;;;;;11.53;42.11;102939.16;4422097;32;20064;-69
2022/01/21 04:58:21;;;;;;;10.40;1.80;;;;;;;11.26;42.96;102938.53;4419066;32;20085;-69
2022/01/21 05:00:47;;;;;;;10.50;1.58;;;;;;;11.53;42.88;102939.16;4416755;32;20405;-69
2022/01/21 05:03:13;;;;;;;7.37;1.50;;;;;;;11.71;43.45;102929.66;4417755;32;20077;-69
2022/01/21 05:05:40;;;;;;;14.48;2.30;;;;;;;12.18;42.83;102934.31;4421839;32;21443;-69
2022/01/21 05:08:09;;;;;;;6.82;1.73;;;;;;;12.51;42.43;102936.03;4416517;32;20045;-70
2022/01/21 05:10:37;;;;;;;15.27;2.30;;;;;;;12.83;41.84;102937.75;4423222;32;21227;-69
2022/01/21 05:13:04;;;;;;;11.18;1.85;;;;;;;13.01;41.27;102930.12;4422391;32;20116;-69
2022/01/21 05:15:57;;;;;;;11.20;1.90;;;;;;;13.16;40.86;102928.91;4420585;32;20605;-69
2022/01/21 05:18:15;;;;;;;11.55;2.22;;;;;;;13.28;40.97;102930.53;4419304;32;20054;-69
2022/01/21 05:20:41;;;;;;;10.02;2.53;;;;;;;13.51;40.23;102922.44;4421610;32;20124;-69
2022/01/21 05:23:06;;;;;;;7.85;1.65;;;;;;;13.61;40.11;102932.94;4421152;32;20038;-69
2022/01/21 05:25:32;;;;;;;8.38;1.50;;;;;;;13.73;39.73;102926.84;4415920;32;20156;-69
2022/01/21 05:27:59;;;;;;;9.93;2.00;;;;;;;13.83;39.72;102934.50;4417090;32;20034;-69
2022/01/21 05:30:25;;;;;;;10.85;2.08;;;;;;;13.95;39.50;102925.56;4414824;32;20442;-69
2022/01/21 05:32:51;;;;;;;10.27;2.28;;;;;;;13.73;39.85;102924.81;4419767;32;20115;-69
2022/01/21 05:35:17;;;;;;;13.45;2.58;;;;;;;13.89;39.54;102925.19;4418344;32;20480;-69
2022/01/21 05:37:43;;;;;;;10.48;2.03;;;;;;;13.80;39.42;102930.47;4423426;32;20038;-69
2022/01/21 05:40:14;;;;;;;11.00;2.22;;;;;;;13.95;39.35;102932.03;4421133;32;20037;-69
2022/01/21 05:42:39;;;;;;;14.43;2.20;;;;;;;14.25;39.08;102933.56;4421900;32;20029;-69
2022/01/21 05:47:43;;;;;;;11.55;2.65;;;;;;;14.49;38.99;102932.66;3981475;32;15022346;-70
2022/01/21 05:50:09;;;;;;;7.37;2.30;;;;;;;14.49;38.99;102932.66;4432417;32;20500;-70
2022/01/21 05:52:40;;;;;;;11.40;2.70;;;;;;;13.99;39.30;102930.00;4427985;32;20329;-70
2022/01/21 05:55:06;;;;;;;16.62;3.42;;;;;;;14.04;39.37;102918.25;4429547;32;20096;-70
2022/01/21 05:57:31;;;;;;;12.52;2.58;;;;;;;13.95;39.36;102922.72;4430629;32;20039;-70
2022/01/21 05:59:58;;;;;;;15.98;3.17;;;;;;;14.01;39.28;102918.25;4433169;32;20080;-70
2022/01/21 06:02:24;;;;;;;9.88;2.87;;;;;;;13.98;39.67;102925.56;4428240;32;20427;-70
2022/01/21 06:04:51;;;;;;;11.25;3.58;;;;;;;14.05;39.65;102922.69;4434605;32;21210;-70
2022/01/21 06:07:17;;;;;;;11.07;3.15;;;;;;;14.10;39.58;102918.63;4428631;32;20122;-70
2022/01/21 06:09:43;;;;;;;17.23;3.70;;;;;;;14.14;39.52;102904.47;4431681;32;20052;-70
2022/01/21 06:12:09;;;;;;;13.18;3.00;;;;;;;14.14;39.32;102910.12;4429243;32;20439;-70
2022/01/21 06:14:37;;;;;;;9.20;3.37;;;;;;;14.17;39.54;102921.44;4434274;32;20480;-70
2022/01/21 06:17:04;;;;;;;8.40;2.30;;;;;;;14.28;39.39;102913.75;4428050;32;20069;-70
2022/01/21 06:19:29;;;;;;;7.30;2.35;;;;;;;14.06;39.69;102921.47;4426386;32;20456;-70
2022/01/21 06:21:55;;;;;;;8.48;2.53;;;;;;;14.33;39.13;102918.16;4431254;32;20105;-70
2022/01/21 06:24:20;;;;;;;12.95;3.33;;;;;;;13.98;39.46;102922.72;4429553;32;20069;-70
2022/01/21 06:26:48;;;;;;;18.80;2.50;;;;;;;14.41;39.04;102920.53;4432936;32;20102;-70
2022/01/21 06:29:13;;;;;;;15.10;3.03;;;;;;;14.47;38.90;102920.91;4429476;32;20563;-70
2022/01/21 06:31:39;;;;;;;9.50;2.20;;;;;;;14.50;38.85;102920.09;4428722;32;20106;-70
2022/01/21 06:34:04;;;;;;;10.50;2.55;;;;;;;14.33;38.80;102918.16;4427156;32;20133;-70
2022/01/21 06:36:30;;;;;;;10.70;2.53;;;;;;;14.23;38.87;102907.69;4429151;32;20048;-70
2022/01/21 06:38:56;;;;;;;17.30;3.22;;;;;;;14.52;38.73;102924.16;4427962;32;20496;-70
2022/01/21 06:41:22;;;;;;;10.00;2.70;;;;;;;14.42;38.63;102915.69;4433214;32;20101;-70
2022/01/21 06:43:48;;;;;;;11.48;3.53;;;;;;;14.53;38.71;102927.75;4430258;32;20108;-70
2022/01/21 06:46:14;;;;;;;13.32;2.35;;;;;;;14.49;38.77;102910.81;4424450;32;20439;-70
2022/01/21 06:48:40;;;;;;;8.93;3.33;;;;;;;14.59;38.65;102912.75;4430883;32;21227;-70
2022/01/21 06:51:06;;;;;;;10.48;3.28;;;;;;;14.70;38.36;102907.03;4431320;32;20042;-70
2022/01/21 06:53:32;;;;;;;15.63;3.12;;;;;;;14.74;38.34;102904.97;4430907;32;20449;-70
2022/01/21 06:55:57;;;;;;;10.38;2.85;;;;;;;14.70;38.29;102899.31;4425342;32;20312;-70
2022/01/21 06:58:24;;;;;;;12.88;3.10;;;;;;;14.71;38.43;102905.78;4423365;32;20112;-70
2022/01/21 07:00:49;;;;;;;9.07;2.65;;;;;;;14.80;38.18;102898.47;4414619;32;20296;-70
2022/01/21 07:03:15;;;;;;;10.73;3.00;;;;;;;14.77;38.29;102899.28;4420237;32;20089;-70
2022/01/21 07:05:46;;;;;;;11.50;3.15;;;;;;;14.40;38.74;102898.28;4417822;32;20081;-70
2022/01/21 07:08:15;;;;;;;8.52;2.42;;;;;;;14.33;38.91;102895.50;4421699;32;20120;-70
2022/01/21 07:10:41;;;;;;;11.88;3.03;;;;;;;14.68;38.64;102898.13;4417502;32;20068;-70
2022/01/21 07:13:07;;;;;;;10.52;2.92;;;;;;;14.49;38.82;102907.16;4416659;32;20076;-70
2022/01/21 07:15:33;;;;;;;13.82;3.40;;;;;;;14.58;38.74;102914.00;4418339;32;20034;-70
2022/01/21 07:17:59;;;;;;;11.70;3.10;;;;;;;14.52;39.07;102909.16;4421620;32;20087;-70
2022/01/21 07:20:24;;;;;;;10.93;2.75;;;;;;;14.43;39.02;102914.47;4420645;32;20202;-70
2022/01/21 07:22:50;;;;;;;15.00;3.20;;;;;;;14.38;39.26;102914.87;4419961;32;20052;-70
2022/01/21 07:25:17;;;;;;;14.52;3.33;;;;;;;14.39;39.21;102905.19;4419485;32;20097;-71
2022/01/21 07:27:44;;;;;;;9.65;2.90;;;;;;;14.45;39.38;102917.72;4417557;32;20394;-71
2022/01/21 07:30:12;;;;;;;8.85;2.70;;;;;;;14.85;38.94;102917.84;4413976;32;20078;-71
2022/01/21 07:32:39;;;;;;;7.80;3.00;;;;;;;14.83;38.80;102913.81;4419707;32;20088;-71
2022/01/21 07:35:07;;;;;;;6.53;2.90;;;;;;;14.97;38.69;102919.41;4413716;32;20058;-71
2022/01/21 07:37:33;;;;;;;13.35;3.60;;;;;;;15.01;38.70;102914.50;4414488;32;20118;-72
2022/01/21 07:39:59;;;;;;;12.40;3.60;;;;;;;14.96;38.68;102909.25;4409447;32;20030;-71
2022/01/21 07:42:25;;;;;;;13.13;3.85;;;;;;;14.92;38.85;102914.97;4412930;32;20104;-71
2022/01/21 07:44:50;;;;;;;12.48;3.97;;;;;;;15.00;38.52;102905.16;4415589;32;20073;-71
2022/01/21 07:47:16;;;;;;;11.63;3.72;;;;;;;15.00;38.56;102921.41;4406224;32;20073;-71
2022/01/21 07:49:42;;;;;;;16.15;3.92;;;;;;;14.84;38.58;102916.22;4413071;32;20475;-71
2022/01/21 07:52:08;;;;;;;15.75;4.57;;;;;;;14.87;38.75;102915.41;4413080;32;20313;-71
2022/01/21 07:54:35;;;;;;;15.55;4.40;;;;;;;14.62;39.12;102902.62;4409081;32;20146;-71
2022/01/21 07:57:02;;;;;;;15.93;4.80;;;;;;;14.77;39.06;102915.47;4411873;32;20077;-71
2022/01/21 07:59:28;;;;;;;17.17;4.87;;;;;;;14.72;39.24;102913.88;4409062;32;20103;-71
2022/01/21 08:01:53;;;;;;;9.05;3.55;;;;;;;14.71;39.12;102917.13;4413667;32;20037;-71
2022/01/21 08:04:19;;;;;;;17.90;5.68;;;;;;;14.87;39.10;102914.59;4412729;32;20100;-71
2022/01/21 08:06:45;;;;;;;15.55;5.57;;;;;;;14.84;39.06;102919.06;4401822;32;20470;-71
2022/01/21 08:09:10;;;;;;;23.23;8.93;;;;;;;14.88;38.94;102917.00;4408287;32;20082;-71
2022/01/21 08:11:36;;;;;;;16.87;5.95;;;;;;;14.87;39.18;102915.41;4409437;32;20212;-71
2022/01/21 08:14:02;;;;;;;16.60;5.60;;;;;;;14.99;39.01;102917.75;4410579;32;20061;-71
2022/01/21 08:16:27;;;;;;;22.20;6.40;;;;;;;15.06;38.77;102920.53;4410350;32;20728;-71
2022/01/21 08:18:54;;;;;;;12.98;5.57;;;;;;;15.07;38.75;102915.66;4412146;32;20129;-71
2022/01/21 08:21:20;;;;;;;15.75;5.45;;;;;;;15.13;38.73;102923.28;4411681;32;20061;-71
2022/01/21 08:23:48;;;;;;;16.00;6.50;;;;;;;15.14;38.70;102921.28;4410313;32;20246;-71
2022/01/21 08:26:13;;;;;;;12.70;5.22;;;;;;;15.26;38.68;102920.78;4411355;32;20573;-71
2022/01/21 08:28:40;;;;;;;17.23;5.90;;;;;;;15.13;38.66;102926.13;4413058;32;20022;-71
2022/01/21 08:31:05;;;;;;;19.23;5.57;;;;;;;15.22;38.53;102925.69;4411309;32;20388;-71
2022/01/21 08:33:32;;;;;;;13.40;5.28;;;;;;;15.07;38.93;102924.97;4411189;32;20050;-71
2022/01/21 08:35:57;;;;;;;14.85;5.28;;;;;;;15.08;38.88;102922.94;4406755;32;20215;-71
2022/01/21 08:38:23;;;;;;;14.10;5.12;;;;;;;14.99;38.81;102917.75;4410032;32;20080;-71
2022/01/21 08:40:49;;;;;;;13.80;4.72;;;;;;;14.88;39.03;102904.87;4411883;32;20065;-71
2022/01/21 08:43:15;;;;;;;15.20;5.37;;;;;;;14.78;39.12;102917.91;4410511;32;20059;-71
2022/01/21 08:45:41;;;;;;;18.58;6.40;;;;;;;14.65;39.67;102910.28;4409270;32;20104;-71
2022/01/21 08:48:07;;;;;;;12.70;4.85;;;;;;;14.47;40.23;102912.41;4408461;32;20217;-71
2022/01/21 08:50:33;;;;;;;9.48;4.22;;;;;;;14.38;40.37;102915.72;4410388;32;20092;-70
2022/01/21 08:53:09;;;;;;;18.85;5.72;;;;;;;14.43;40.51;102908.81;4412386;32;20132;-70
2022/01/21 08:55:35;;;;;;;11.05;4.97;;;;;;;14.30;40.83;102905.63;4410688;32;20753;-69
2022/01/21 08:58:02;;;;;;;16.45;5.72;;;;;;;14.38;40.92;102906.38;4408211;32;20085;-70
2022/01/21 09:00:28;;;;;;;19.00;5.35;;;;;;;14.34;41.35;102905.63;4408253;32;20424;-70
2022/01/21 09:02:54;;;;;;;13.40;5.93;;;;;;;14.68;40.71;102896.09;4412337;32;20450;-70
2022/01/21 09:05:20;;;;;;;22.77;6.45;;;;;;;14.50;41.11;102897.44;4409563;32;20161;-70
2022/01/21 09:07:46;;;;;;;15.00;6.50;;;;;;;14.65;40.97;102888.44;4413329;32;20104;-71
2022/01/21 09:10:12;;;;;;;15.77;6.43;;;;;;;14.94;40.65;102895.50;4412122;32;20149;-72
2022/01/21 09:12:38;;;;;;;12.70;5.15;;;;;;;14.98;40.86;102893.47;4411314;32;20073;-71
2022/01/21 09:15:06;;;;;;;12.68;5.55;;;;;;;14.89;41.14;102889.47;4413162;32;20041;-71
2022/01/21 09:17:34;;;;;;;12.30;5.85;;;;;;;15.09;41.16;102884.84;4411072;32;20070;-71
2022/01/21 09:20:00;;;;;;;14.43;5.68;;;;;;;15.25;40.50;102893.63;4404509;32;20144;-71
2022/01/21 09:22:26;;;;;;;9.57;4.68;;;;;;;15.34;40.58;102893.97;4410368;32;20062;-71
2022/01/21 09:24:52;;;;;;;5.93;3.70;;;;;;;15.16;41.25;102885.59;4413469;32;20065;-71
2022/01/21 09:27:17;;;;;;;7.78;4.40;;;;;;;14.74;42.15;102882.28;4412085;32;20142;-71
2022/01/21 09:29:43;;;;;;;12.82;5.05;;;;;;;14.97;41.55;102876.88;4411595;32;20030;-72
2022/01/21 09:32:09;;;;;;;16.58;6.25;;;;;;;14.96;42.04;102883.75;4408785;32;20064;-71
2022/01/21 09:34:34;;;;;;;12.85;6.25;;;;;;;14.99;41.73;102865.88;4412298;32;20073;-71
2022/01/21 09:37:01;;;;;;;5.85;3.22;;;;;;;15.29;41.53;102877.37;4413855;32;20069;-71
2022/01/21 09:39:29;;;;;;;7.07;3.75;;;;;;;15.33;41.77;102875.31;4412808;32;20482;-70
2022/01/21 09:41:59;;;;;;;12.43;5.28;;;;;;;15.83;40.61;102879.25;4409953;32;20081;-71
2022/01/21 09:44:27;;;;;;;11.10;5.05;;;;;;;16.05;40.50;102876.97;4412009;32;20121;-71
2022/01/21 09:46:54;;;;;;;4.55;3.25;;;;;;;15.97;40.14;102887.59;4412786;32;20325;-71
2022/01/21 09:52:04;;;;;;;5.35;3.37;;;;;;;17.37;37.70;102896.88;3974567;32;15021830;-72
2022/01/21 09:54:33;;;;;;;5.30;3.25;;;;;;;17.37;37.70;102896.88;4425623;32;20087;-72
2022/01/21 09:57:00;;;;;;;7.50;2.92;;;;;;;16.93;38.11;102891.53;4418745;32;20203;-72
2022/01/21 09:59:29;;;;;;;4.50;3.30;;;;;;;16.68;38.52;102896.00;4416067;32;20535;-71
2022/01/21 10:01:59;;;;;;;6.07;3.20;;;;;;;16.78;38.42;102893.00;4411934;32;20408;-71
2022/01/21 10:04:27;;;;;;;8.07;3.60;;;;;;;16.89;38.35;102904.19;4419164;32;20151;-71
2022/01/21 10:06:54;;;;;;;4.47;2.78;;;;;;;17.08;38.08;102901.44;4416642;32;20085;-72
2022/01/21 10:09:21;;;;;;;6.22;3.25;;;;;;;17.12;38.11;102893.66;4424011;32;20037;-70
2022/01/21 10:11:49;;;;;;;6.45;3.40;;;;;;;17.29;37.99;102891.75;4421281;32;20133;-72
2022/01/21 10:14:21;;;;;;;5.97;3.53;;;;;;;17.50;37.55;102886.50;4418670;32;20450;-71
2022/01/21 10:16:48;;;;;;;5.35;3.30;;;;;;;18.14;36.49;102896.63;4423909;32;20081;-72
2022/01/21 10:19:23;;;;;;;5.22;2.85;;;;;;;18.19;36.50;102898.97;4425226;32;20145;-71
2022/01/21 10:22:06;;;;;;;5.80;3.67;;;;;;;18.73;34.63;102898.19;4426498;32;20073;-71
2022/01/21 10:24:34;;;;;;;6.07;3.17;;;;;;;19.25;34.50;102890.34;4425635;32;20086;-71
2022/01/21 10:27:01;;;;;;;8.45;3.05;;;;;;;19.39;33.66;102890.00;4426657;32;20581;-71
2022/01/21 10:29:38;;;;;;;10.70;3.58;;;;;;;19.30;34.03;102894.75;4424868;32;20574;-71
2022/01/21 10:32:06;;;;;;;7.37;2.40;;;;;;;19.59;34.04;102882.12;4423681;32;20545;-71
2022/01/21 10:34:43;;;;;;;4.75;2.03;;;;;;;19.14;34.19;102883.28;4423057;32;20076;-71
2022/01/21 10:37:30;;;;;;;3.70;1.85;;;;;;;19.01;33.93;102879.56;4420455;32;20330;-71
2022/01/21 10:40:02;;;;;;;2.75;1.85;;;;;;;19.05;34.34;102868.88;4421789;32;20445;-70
2022/01/21 10:42:29;;;;;;;3.85;1.10;;;;;;;19.06;34.46;102864.75;4425114;32;20096;-70
2022/01/21 10:44:57;;;;;;;2.53;1.02;;;;;;;17.82;36.65;102866.75;4423624;32;20085;-70
2022/01/21 10:47:34;;;;;;;1.08;0.57;;;;;;;18.56;35.28;102875.78;4425901;32;20076;-70
2022/01/21 10:50:08;;;;;;;4.07;1.87;;;;;;;18.64;34.82;102866.59;4421898;32;20081;-71
2022/01/21 10:52:38;;;;;;;1.10;0.70;;;;;;;18.65;35.43;102871.06;4426234;32;20510;-71
2022/01/21 10:55:26;;;;;;;4.87;1.40;;;;;;;18.53;35.29;102866.03;4425937;32;20045;-71
2022/01/21 11:01:08;;;;;;;1.52;0.70;;;;;;;18.74;34.81;102874.09;3963395;31;16143982;-71
2022/01/21 11:03:40;;;;;;;1.62;0.60;;;;;;;18.74;34.81;102874.09;4453679;32;20174;-71
2022/01/21 11:06:24;;;;;;;1.98;0.70;;;;;;;17.91;35.77;102882.47;4452129;32;20400;-71
2022/01/21 11:08:49;;;;;;;0.60;0.45;;;;;;;17.95;36.22;102886.03;4453025;32;20032;-71
2022/01/21 11:11:22;;;;;;;1.48;0.65;;;;;;;17.34;37.19;102874.97;4455800;32;20112;-71
2022/01/21 11:13:48;;;;;;;2.15;0.90;;;;;;;17.03;37.89;102872.69;4454990;32;20044;-71
2022/01/21 11:16:18;;;;;;;2.17;0.95;;;;;;;17.92;36.48;102882.81;4455142;32;20045;-71
2022/01/21 11:21:48;;;;;;;1.23;0.73;;;;;;;18.67;34.86;102873.47;3975808;32;15028904;-70
2022/01/21 11:24:17;;;;;;;1.37;0.95;;;;;;;18.67;34.86;102873.47;4428479;32;20623;-71
2022/01/21 11:26:43;;;;;;;2.30;1.35;;;;;;;17.63;36.76;102876.09;4424981;32;20099;-71
2022/01/21 11:29:11;;;;;;;1.83;1.30;;;;;;;17.77;36.74;102875.78;4420759;32;21241;-70
2022/01/21 11:31:37;;;;;;;1.90;1.05;;;;;;;18.18;36.03;102866.81;4421671;32;20084;-71
2022/01/21 11:34:02;;;;;;;2.10;0.82;;;;;;;17.74;36.33;102873.81;4424792;32;20073;-70
2022/01/21 11:36:29;;;;;;;3.47;1.20;;;;;;;18.06;35.92;102858.13;4432203;32;20053;-70
2022/01/21 11:38:55;;;;;;;3.80;1.02;;;;;;;18.41;35.61;102871.63;4429638;32;20483;-70
2022/01/21 11:41:24;;;;;;;1.67;0.93;;;;;;;18.41;35.46;102854.53;4430157;32;20120;-71
2022/01/21 11:43:55;;;;;;;2.40;1.25;;;;;;;18.66;35.32;102852.72;4424156;32;20080;-71
2022/01/21 11:49:18;;;;;;;4.80;2.55;;;;;;;18.90;34.68;102850.50;3986441;32;15022692;-71
2022/01/21 11:51:44;;;;;;;4.87;1.98;;;;;;;18.84;35.03;102840.84;4439974;32;20057;-72
2022/01/21 11:54:13;;;;;;;9.13;4.00;;;;;;;18.39;35.43;102848.47;4436712;32;20092;-71
2022/01/21 11:59:39;;;;;;;7.93;2.80;;;;;;;19.65;33.25;102846.03;3990738;31;15016944;-72
2022/01/21 12:02:22;;;;;;;2.65;1.37;;;;;;;18.78;34.80;102836.94;4444830;32;20074;-72
2022/01/21 12:04:52;;;;;;;4.25;1.85;;;;;;;19.18;34.14;102838.34;4430491;32;20157;-71
2022/01/21 12:20:41;;;;;;;4.37;1.58;;;;;;;20.80;31.03;102825.75;3977353;32;15025309;-71
2022/01/21 12:23:14;;;;;;;5.00;2.37;;;;;;;20.80;31.03;102825.75;4435944;32;20075;-72
2022/01/21 12:26:13;;;;;;;11.68;3.72;;;;;;;20.82;30.78;102828.94;4426468;32;20378;-71
2022/01/21 12:28:41;;;;;;;8.82;2.95;;;;;;;21.20;30.01;102824.78;4425679;32;20437;-72
2022/01/21 12:31:12;;;;;;;7.12;2.30;;;;;;;21.23;30.19;102828.78;4431864;32;20032;-72
2022/01/21 12:34:03;;;;;;;6.37;1.67;;;;;;;21.01;30.26;102819.31;4429330;32;20478;-72
2022/01/21 12:36:32;;;;;;;5.78;1.55;;;;;;;21.38;29.68;102810.63;4428714;32;20038;-72
2022/01/21 12:41:43;;;;;;;9.13;1.52;;;;;;;22.79;28.34;102820.28;3956117;32;15025788;-72
2022/01/21 12:44:11;;;;;;;3.80;1.42;;;;;;;22.79;28.34;102820.28;4404808;32;20087;-71
2022/01/21 12:46:42;;;;;;;4.45;1.40;;;;;;;22.01;28.78;102812.41;4409767;32;20074;-71